createdAt,value
2019-03-15T00:01:16.830Z,100392.41
2019-03-15T00:03:48.312Z,100400.23
2019-03-15T00:06:17.305Z,100400.80
2019-03-15T00:08:46.526Z,100402.69
2019-03-15T00:11:15.719Z,100412.14
2019-03-15T00:13:44.818Z,100412.14
2019-03-15T00:16:14.036Z,100409.11
2019-03-15T00:18:43.026Z,100411.17
2019-03-15T00:21:12.179Z,100418.12
2019-03-15T00:23:41.273Z,100426.05
2019-03-15T00:26:10.290Z,100426.05
2019-03-15T00:28:41.455Z,100433.22
2019-03-15T00:31:10.618Z,100434.64
2019-03-15T00:33:39.629Z,100429.87
2019-03-15T00:36:08.729Z,100429.72
2019-03-15T00:38:37.931Z,100431.45
2019-03-15T00:41:07.006Z,100431.45
2019-03-15T00:43:36.123Z,100437.95
2019-03-15T00:46:05.300Z,100433.16
2019-03-15T00:48:34.478Z,100433.16
2019-03-15T00:51:03.614Z,100436.42
2019-03-15T00:53:32.757Z,100435.75
2019-03-15T00:56:01.866Z,100432.59
2019-03-15T00:58:33.291Z,100438.86
2019-03-15T01:01:02.386Z,100387.67
2019-03-15T01:03:31.429Z,100439.34
2019-03-15T01:06:01.582Z,100438.94
2019-03-15T01:08:30.693Z,100431.43
2019-03-15T01:10:59.688Z,100434.64
2019-03-15T01:13:28.743Z,100428.27
2019-03-15T01:15:57.767Z,100428.27
2019-03-15T01:18:28.051Z,100429.56
2019-03-15T01:20:57.140Z,100433.34
2019-03-15T01:23:26.966Z,100429.02
2019-03-15T01:25:55.991Z,100421.93
2019-03-15T01:28:24.987Z,100427.09
2019-03-15T01:30:54.047Z,100427.09
2019-03-15T01:33:23.143Z,100420.05
2019-03-15T01:35:52.246Z,100421.28
2019-03-15T01:38:21.255Z,100421.28
2019-03-15T01:40:50.376Z,100423.73
2019-03-15T01:43:19.483Z,100415.80
2019-03-15T01:45:48.514Z,100411.48
2019-03-15T01:48:17.630Z,100411.48
2019-03-15T01:50:46.647Z,100411.29
2019-03-15T01:53:15.640Z,100408.70
2019-03-15T01:55:44.740Z,100410.28
2019-03-15T01:58:13.916Z,100409.30
2019-03-15T02:00:43.037Z,100406.59
2019-03-15T02:03:12.024Z,100391.69
2019-03-15T02:05:41.170Z,100384.05
2019-03-15T02:08:10.209Z,100384.61
2019-03-15T02:10:39.199Z,100373.85
2019-03-15T02:13:08.193Z,100373.85
2019-03-15T02:15:37.207Z,100362.30
2019-03-15T02:18:06.392Z,100362.30
2019-03-15T02:20:35.383Z,100358.41
2019-03-15T02:23:04.401Z,100363.70
2019-03-15T02:25:33.566Z,100363.70
2019-03-15T02:28:02.545Z,100359.13
2019-03-15T02:30:31.728Z,100355.48
2019-03-15T02:33:00.724Z,100350.27
2019-03-15T02:35:29.730Z,100350.27
2019-03-15T02:38:00.269Z,100350.50
2019-03-15T02:40:29.463Z,100350.50
2019-03-15T02:42:58.590Z,100354.08
2019-03-15T02:45:27.689Z,100331.55
2019-03-15T02:47:56.697Z,100324.68
2019-03-15T02:50:25.759Z,100324.68
2019-03-15T02:52:54.832Z,100318.20
2019-03-15T02:55:23.934Z,100320.44
2019-03-15T02:57:53.069Z,100321.01
2019-03-15T03:00:22.150Z,100320.12
2019-03-15T03:02:51.192Z,100320.12
2019-03-15T03:05:20.264Z,100314.39
2019-03-15T03:07:49.417Z,100318.64
2019-03-15T03:10:18.535Z,100307.97
2019-03-15T03:12:47.750Z,100305.43
2019-03-15T03:15:16.874Z,100296.38
2019-03-15T03:17:48.365Z,100288.27
2019-03-15T03:20:17.523Z,100288.27
2019-03-15T03:22:46.683Z,100288.27
2019-03-15T03:25:17.230Z,100284.69
2019-03-15T03:27:47.621Z,100279.98
2019-03-15T03:30:17.439Z,100279.98
2019-03-15T03:32:46.550Z,100279.02
2019-03-15T03:35:15.642Z,100286.84
2019-03-15T03:37:45.326Z,100286.02
2019-03-15T03:40:14.762Z,100286.48
2019-03-15T03:42:43.876Z,100286.48
2019-03-15T03:45:13.001Z,100282.51
2019-03-15T03:47:42.054Z,100280.36
2019-03-15T03:50:11.652Z,100279.53
2019-03-15T03:52:41.989Z,100279.75
2019-03-15T03:55:11.353Z,100279.75
2019-03-15T03:57:40.366Z,100283.34
2019-03-15T04:00:09.858Z,100283.34
2019-03-15T04:02:39.016Z,100278.13
2019-03-15T04:05:08.178Z,100278.13
2019-03-15T04:07:37.359Z,100257.97
2019-03-15T04:10:06.822Z,100257.97
2019-03-15T04:12:35.995Z,100261.91
2019-03-15T04:15:05.502Z,100257.66
2019-03-15T04:17:34.516Z,100252.45
2019-03-15T04:20:05.271Z,100252.45
2019-03-15T04:22:34.380Z,100244.00
2019-03-15T04:25:07.070Z,100244.00
2019-03-15T04:27:35.294Z,100249.76
2019-03-15T04:30:04.729Z,100241.61
2019-03-15T04:32:34.290Z,100231.59
2019-03-15T04:35:04.720Z,100231.59
2019-03-15T04:37:33.859Z,100228.80
2019-03-15T04:40:02.992Z,100228.80
2019-03-15T04:42:32.016Z,100224.10
2019-03-15T04:45:01.140Z,100220.45
2019-03-15T04:47:30.157Z,100220.45
2019-03-15T04:49:59.159Z,100214.02
2019-03-15T04:52:28.254Z,100204.45
2019-03-15T04:54:57.288Z,100204.45
2019-03-15T04:57:28.705Z,100205.77
2019-03-15T04:59:57.725Z,100202.99
2019-03-15T05:02:26.904Z,100198.33
2019-03-15T05:04:55.903Z,100198.33
2019-03-15T05:07:24.931Z,100195.08
2019-03-15T05:09:54.023Z,100188.44
2019-03-15T05:12:25.958Z,100188.44
2019-03-15T05:14:54.959Z,100186.08
2019-03-15T05:17:24.043Z,100180.09
2019-03-15T05:19:53.055Z,100179.05
2019-03-15T05:22:22.104Z,100179.05
2019-03-15T05:24:51.171Z,100163.02
2019-03-15T05:27:20.186Z,100165.07
2019-03-15T05:29:49.202Z,100164.83
2019-03-15T05:32:18.184Z,100163.95
2019-03-15T05:34:47.180Z,100164.27
2019-03-15T05:37:16.240Z,100157.98
2019-03-15T05:39:45.257Z,100154.30
2019-03-15T05:42:14.228Z,100154.30
2019-03-15T05:44:43.250Z,100160.20
2019-03-15T05:47:12.212Z,100157.42
2019-03-15T05:49:41.204Z,100145.20
2019-03-15T05:52:10.300Z,100139.89
2019-03-15T05:54:39.267Z,100139.89
2019-03-15T05:57:08.297Z,100139.92
2019-03-15T05:59:37.289Z,100139.92
2019-03-15T06:02:06.350Z,100133.28
2019-03-15T06:04:35.337Z,100133.52
2019-03-15T06:07:04.421Z,100130.32
2019-03-15T06:09:33.393Z,100130.32
2019-03-15T06:12:02.481Z,100119.88
2019-03-15T06:14:31.503Z,100120.87
2019-03-15T06:17:00.503Z,100120.87
2019-03-15T06:19:29.571Z,100117.20
2019-03-15T06:21:58.652Z,100117.20
2019-03-15T06:24:27.679Z,100112.80
2019-03-15T06:26:56.758Z,100113.42
2019-03-15T06:29:25.773Z,100113.42
2019-03-15T06:31:54.809Z,100112.02
2019-03-15T06:34:24.878Z,100112.02
2019-03-15T06:36:53.931Z,100101.84
2019-03-15T06:39:22.933Z,100084.63
2019-03-15T06:41:51.949Z,100082.62
2019-03-15T06:44:20.953Z,100082.62
2019-03-15T06:46:49.942Z,100084.01
2019-03-15T06:49:19.024Z,100069.64
2019-03-15T06:51:48.042Z,100075.96
2019-03-15T06:54:17.047Z,100070.66
2019-03-15T06:56:46.119Z,100063.81
2019-03-15T06:59:17.158Z,100053.45
2019-03-15T07:01:46.215Z,100047.41
2019-03-15T07:04:15.288Z,100045.31
2019-03-15T07:06:44.361Z,100057.67
2019-03-15T07:09:13.620Z,100048.06
2019-03-15T07:11:44.257Z,100051.34
2019-03-15T07:14:13.377Z,100032.55
2019-03-15T07:16:42.453Z,100032.55
2019-03-15T07:19:11.677Z,100039.28
2019-03-15T07:21:40.698Z,100040.69
2019-03-15T07:24:09.698Z,100041.04
2019-03-15T07:26:38.709Z,100021.80
2019-03-15T07:29:07.742Z,100026.53
2019-03-15T07:31:36.836Z,100017.08
2019-03-15T07:34:05.912Z,100012.23
2019-03-15T07:36:37.229Z,100004.83
2019-03-15T07:39:07.463Z,100017.99
2019-03-15T07:41:36.597Z,100005.69
2019-03-15T07:44:05.808Z,100005.02
2019-03-15T07:46:34.898Z,100006.42
2019-03-15T07:49:04.044Z,99999.47
2019-03-15T07:51:34.272Z,99999.47
2019-03-15T07:54:03.423Z,99978.84
2019-03-15T07:56:32.595Z,99994.59
2019-03-15T07:59:01.722Z,99989.66
2019-03-15T08:01:30.772Z,99980.14
2019-03-15T08:03:59.847Z,99985.98
2019-03-15T08:06:34.811Z,99991.53
2019-03-15T08:08:59.704Z,99980.77
2019-03-15T08:11:28.725Z,99979.34
2019-03-15T08:13:57.738Z,99979.34
2019-03-15T08:16:26.801Z,99981.81
2019-03-15T08:18:55.866Z,99963.89
2019-03-15T08:21:24.955Z,99963.31
2019-03-15T08:23:54.032Z,99969.77
2019-03-15T08:26:23.046Z,99975.14
2019-03-15T08:28:52.035Z,99979.63
2019-03-15T08:31:23.266Z,99978.47
2019-03-15T08:33:51.797Z,99969.00
2019-03-15T08:36:20.793Z,99979.22
2019-03-15T08:38:49.852Z,99972.98
2019-03-15T08:41:18.919Z,99961.58
2019-03-15T08:43:48.726Z,99977.50
2019-03-15T08:46:17.738Z,99977.50
2019-03-15T08:48:46.746Z,99974.75
2019-03-15T08:51:15.772Z,99974.75
2019-03-15T08:53:44.830Z,99983.31
2019-03-15T08:56:14.693Z,99988.02
2019-03-15T08:58:44.026Z,99988.02
2019-03-15T09:01:13.276Z,99976.28
2019-03-15T09:03:42.391Z,99976.28
2019-03-15T09:06:11.373Z,99979.30
2019-03-15T09:08:40.460Z,99994.12
2019-03-15T09:11:09.570Z,99992.30
2019-03-15T09:13:38.753Z,99992.30
2019-03-15T09:16:07.734Z,99990.81
2019-03-15T09:18:39.204Z,99996.88
2019-03-15T09:21:08.447Z,100003.09
2019-03-15T09:23:37.478Z,100023.66
2019-03-15T09:26:10.053Z,100016.92
2019-03-15T09:28:37.622Z,100015.70
2019-03-15T09:31:07.660Z,100016.30
2019-03-15T09:33:36.955Z,100016.30
2019-03-15T09:36:06.138Z,100034.73
2019-03-15T09:38:35.265Z,100017.94
2019-03-15T09:41:04.470Z,100017.94
2019-03-15T09:43:33.645Z,100030.91
2019-03-15T09:46:03.777Z,100018.38
2019-03-15T09:48:32.842Z,100018.38
2019-03-15T09:51:01.848Z,100037.55
2019-03-15T09:53:30.849Z,100037.55
2019-03-15T09:55:59.857Z,100027.83
2019-03-15T09:58:28.920Z,100029.95
2019-03-15T10:00:58.444Z,100018.29
2019-03-15T10:03:27.769Z,100033.09
2019-03-15T10:05:56.834Z,100040.09
2019-03-15T10:08:25.994Z,100036.05
2019-03-15T10:10:55.081Z,100039.13
2019-03-15T10:13:24.167Z,100049.78
2019-03-15T10:15:55.848Z,100056.17
2019-03-15T10:18:25.029Z,100030.40
2019-03-15T10:20:54.143Z,100041.70
2019-03-15T10:23:23.155Z,100033.35
2019-03-15T10:25:56.086Z,100045.32
2019-03-15T10:28:25.321Z,100046.59
2019-03-15T10:30:54.512Z,100046.59
2019-03-15T10:33:23.673Z,100050.22
2019-03-15T10:35:52.775Z,100044.77
2019-03-15T10:38:21.967Z,100056.42
2019-03-15T10:40:51.034Z,100056.42
2019-03-15T10:43:20.025Z,100062.64
2019-03-15T10:45:49.117Z,100065.50
2019-03-15T10:48:25.104Z,100065.50
2019-03-15T10:50:48.934Z,100060.06
2019-03-15T10:53:18.002Z,100071.20
2019-03-15T10:55:59.151Z,100062.86
2019-03-15T10:58:17.815Z,100060.42
2019-03-15T11:00:46.969Z,100071.71
2019-03-15T11:03:15.991Z,100081.36
2019-03-15T11:05:45.096Z,100081.81
2019-03-15T11:08:14.267Z,100085.19
2019-03-15T11:10:43.344Z,100086.39
2019-03-15T11:13:12.469Z,100090.50
2019-03-15T11:15:41.728Z,100090.50
2019-03-15T11:18:10.845Z,100078.61
2019-03-15T11:20:39.874Z,100073.48
2019-03-15T11:23:08.939Z,100085.90
2019-03-15T11:25:38.074Z,100085.90
2019-03-15T11:28:07.110Z,100083.78
2019-03-15T11:30:36.607Z,100076.52
2019-03-15T11:33:05.596Z,100071.02
2019-03-15T11:35:34.715Z,100065.33
2019-03-15T11:38:03.939Z,100072.79
2019-03-15T11:40:33.063Z,100072.79
2019-03-15T11:43:02.653Z,100064.67
2019-03-15T11:45:31.834Z,100073.99
2019-03-15T11:48:04.073Z,100064.97
2019-03-15T11:50:31.998Z,100074.00
2019-03-15T11:53:01.036Z,100074.00
2019-03-15T11:55:31.207Z,100071.11
2019-03-15T11:58:00.305Z,100077.17
2019-03-15T12:00:29.539Z,100077.17
2019-03-15T12:02:58.721Z,100088.47
2019-03-15T12:05:27.949Z,100073.67
2019-03-15T12:07:57.107Z,100062.05
2019-03-15T12:10:26.116Z,100062.05
2019-03-15T12:12:55.181Z,100072.84
2019-03-15T12:15:24.214Z,100066.47
2019-03-15T12:17:53.353Z,100072.17
2019-03-15T12:20:22.434Z,100067.94
2019-03-15T12:22:51.551Z,100062.12
2019-03-15T12:25:20.712Z,100063.89
2019-03-15T12:27:52.221Z,100067.27
2019-03-15T12:30:21.415Z,100050.76
2019-03-15T12:32:50.613Z,100053.34
2019-03-15T12:35:19.776Z,100072.91
2019-03-15T12:37:48.975Z,100039.86
2019-03-15T12:40:18.430Z,100074.13
2019-03-15T12:42:47.544Z,100096.09
2019-03-15T12:45:16.599Z,100086.36
2019-03-15T12:47:45.682Z,100084.23
2019-03-15T12:50:15.359Z,100077.39
2019-03-15T12:52:48.686Z,100077.39
2019-03-15T12:55:15.345Z,100073.19
2019-03-15T12:57:44.402Z,100073.30
2019-03-15T13:00:14.022Z,100069.75
2019-03-15T13:02:43.015Z,100060.08
2019-03-15T13:05:12.171Z,100060.08
2019-03-15T13:07:44.348Z,100064.03
2019-03-15T13:10:13.618Z,100075.23
2019-03-15T13:12:42.660Z,100026.41
2019-03-15T13:15:12.858Z,100026.41
2019-03-15T13:17:43.142Z,100045.20
2019-03-15T13:20:12.810Z,100035.19
2019-03-15T13:22:41.908Z,100043.56
2019-03-15T13:25:11.054Z,100060.97
2019-03-15T13:27:40.133Z,100067.69
2019-03-15T13:30:09.664Z,100054.45
2019-03-15T13:32:38.756Z,100065.00
2019-03-15T13:35:08.042Z,100065.00
2019-03-15T13:37:37.050Z,100062.45
2019-03-15T13:40:06.704Z,100062.45
2019-03-15T13:42:35.735Z,100079.75
2019-03-15T13:45:05.758Z,100087.17
2019-03-15T13:47:34.855Z,100087.17
2019-03-15T13:50:04.206Z,100091.40
2019-03-15T13:52:33.201Z,100096.51
2019-03-15T13:55:02.337Z,100075.47
2019-03-15T13:57:31.302Z,100050.04
2019-03-15T14:00:00.412Z,100091.25
2019-03-15T14:02:29.399Z,100091.25
2019-03-15T14:04:58.435Z,100105.65
2019-03-15T14:07:27.446Z,100108.25
2019-03-15T14:09:56.490Z,100105.38
2019-03-15T14:12:25.512Z,100095.34
2019-03-15T14:14:54.609Z,100110.75
2019-03-15T14:17:23.682Z,100103.77
2019-03-15T14:19:52.748Z,100120.05
2019-03-15T14:22:21.814Z,100120.05
2019-03-15T14:24:50.865Z,100139.70
2019-03-15T14:27:23.012Z,100147.31
2019-03-15T14:29:50.599Z,100147.31
2019-03-15T14:32:19.716Z,100149.55
2019-03-15T14:34:48.738Z,100164.42
2019-03-15T14:37:17.811Z,100160.28
2019-03-15T14:39:46.900Z,100156.00
2019-03-15T14:42:17.246Z,100156.00
2019-03-15T14:44:46.274Z,100153.02
2019-03-15T14:47:15.259Z,100151.09
2019-03-15T14:49:44.392Z,100163.00
2019-03-15T14:52:13.472Z,100161.70
2019-03-15T14:54:42.607Z,100169.26
2019-03-15T14:57:11.716Z,100168.83
2019-03-15T14:59:40.848Z,100172.72
2019-03-15T15:02:10.133Z,100172.72
2019-03-15T15:04:39.127Z,100176.72
2019-03-15T15:07:08.342Z,100181.86
2019-03-15T15:09:37.383Z,100185.42
2019-03-15T15:12:06.492Z,100187.88
2019-03-15T15:14:35.806Z,100190.79
2019-03-15T15:17:05.059Z,100184.71
2019-03-15T15:19:34.132Z,100184.71
2019-03-15T15:22:04.203Z,100190.82
2019-03-15T15:24:33.313Z,100206.55
2019-03-15T15:27:02.347Z,100209.88
2019-03-15T15:29:31.500Z,100209.88
2019-03-15T15:32:00.581Z,100232.11
2019-03-15T15:34:29.590Z,100243.98
2019-03-15T15:36:58.833Z,100238.05
2019-03-15T15:39:27.863Z,100238.05
2019-03-15T15:41:58.565Z,100229.16
2019-03-15T15:44:27.813Z,100225.30
2019-03-15T15:46:57.201Z,100232.11
2019-03-15T15:49:26.414Z,100232.11
2019-03-15T15:51:55.441Z,100236.41
2019-03-15T15:54:24.512Z,100237.50
2019-03-15T15:56:53.502Z,100237.50
2019-03-15T15:59:22.482Z,100242.53
2019-03-15T16:01:51.529Z,100236.08
2019-03-15T16:04:20.592Z,100236.08
2019-03-15T16:06:49.657Z,100244.45
2019-03-15T16:11:52.902Z,100257.17
2019-03-15T16:14:21.878Z,100257.17
2019-03-15T16:16:50.864Z,100252.62
2019-03-15T16:19:19.905Z,100261.45
2019-03-15T16:21:49.014Z,100261.45
2019-03-15T16:24:17.983Z,100262.83
2019-03-15T16:26:47.019Z,100263.66
2019-03-15T16:29:16.051Z,100265.45
2019-03-15T16:31:45.108Z,100260.73
2019-03-15T16:34:14.138Z,100261.11
2019-03-15T16:36:43.123Z,100263.00
2019-03-15T16:39:12.160Z,100270.36
2019-03-15T16:41:41.278Z,100281.02
2019-03-15T16:44:10.259Z,100289.66
2019-03-15T16:46:39.292Z,100291.31
2019-03-15T16:49:08.360Z,100304.34
2019-03-15T16:51:37.416Z,100299.51
2019-03-15T16:54:06.494Z,100301.71
2019-03-15T16:56:35.484Z,100314.27
2019-03-15T16:59:04.576Z,100312.36
2019-03-15T17:01:33.587Z,100318.63
2019-03-15T17:04:02.560Z,100303.50
2019-03-15T17:06:31.622Z,100303.50
2019-03-15T17:09:00.691Z,100315.06
2019-03-15T17:11:29.773Z,100329.55
2019-03-15T17:13:58.780Z,100337.47
2019-03-15T17:16:28.003Z,100328.18
2019-03-15T17:18:56.998Z,100336.06
2019-03-15T17:21:25.991Z,100336.06
2019-03-15T17:23:55.087Z,100348.84
2019-03-15T17:26:24.060Z,100350.88
2019-03-15T17:28:58.615Z,100353.43
2019-03-15T17:31:23.908Z,100376.59
2019-03-15T17:33:52.988Z,100376.59
2019-03-15T17:36:21.971Z,100375.08
2019-03-15T17:38:51.102Z,100373.44
2019-03-15T17:41:20.070Z,100376.91
2019-03-15T17:43:49.065Z,100376.91
2019-03-15T17:46:18.064Z,100397.44
2019-03-15T17:48:47.054Z,100405.81
2019-03-15T17:51:16.166Z,100404.83
2019-03-15T17:53:45.299Z,100399.00
2019-03-15T17:56:14.321Z,100406.06
2019-03-15T17:58:43.509Z,100403.39
2019-03-15T18:01:12.773Z,100403.39
2019-03-15T18:03:41.966Z,100408.16
2019-03-15T18:06:10.992Z,100408.16
2019-03-15T18:08:40.165Z,100418.64
2019-03-15T18:11:10.973Z,100433.18
2019-03-15T18:13:39.984Z,100431.42
2019-03-15T18:16:09.118Z,100431.42
2019-03-15T18:18:38.273Z,100440.81
2019-03-15T18:21:07.379Z,100440.81
2019-03-15T18:23:36.391Z,100449.64
2019-03-15T18:26:05.699Z,100452.23
2019-03-15T18:28:34.819Z,100452.23
2019-03-15T18:31:03.994Z,100460.70
2019-03-15T18:33:33.010Z,100460.70
2019-03-15T18:36:02.023Z,100456.54
2019-03-15T18:38:31.108Z,100462.95
2019-03-15T18:41:01.065Z,100469.95
2019-03-15T18:43:30.180Z,100461.70
2019-03-15T18:45:59.248Z,100472.83
2019-03-15T18:48:28.283Z,100475.67
2019-03-15T18:50:57.384Z,100475.67
2019-03-15T18:53:26.393Z,100483.77
2019-03-15T18:55:58.540Z,100493.14
2019-03-15T18:58:27.780Z,100493.14
2019-03-15T19:00:56.862Z,100489.66
2019-03-15T19:03:26.082Z,100489.66
2019-03-15T19:05:55.218Z,100490.70
2019-03-15T19:08:24.241Z,100493.24
2019-03-15T19:10:53.403Z,100501.31
2019-03-15T19:13:22.387Z,100498.15
2019-03-15T19:15:51.469Z,100511.63
2019-03-15T19:18:20.680Z,100508.86
2019-03-15T19:20:49.786Z,100523.31
2019-03-15T19:23:19.081Z,100523.31
2019-03-15T19:25:48.082Z,100527.41
2019-03-15T19:28:17.200Z,100538.70
2019-03-15T19:30:46.332Z,100544.41
2019-03-15T19:33:18.272Z,100564.00
2019-03-15T19:35:47.345Z,100564.00
2019-03-15T19:38:16.505Z,100566.46
2019-03-15T19:40:45.505Z,100556.06
2019-03-15T19:43:14.569Z,100565.34
2019-03-15T19:45:43.540Z,100557.17
2019-03-15T19:48:12.671Z,100556.08
2019-03-15T19:50:41.669Z,100545.52
2019-03-15T19:53:10.864Z,100560.11
2019-03-15T19:55:39.974Z,100562.92
2019-03-15T19:58:09.043Z,100568.55
2019-03-15T20:00:38.072Z,100572.42
2019-03-15T20:03:07.156Z,100569.14
2019-03-15T20:05:36.357Z,100583.69
2019-03-15T20:08:05.431Z,100583.69
2019-03-15T20:10:34.574Z,100586.73
2019-03-15T20:13:03.650Z,100585.35
2019-03-15T20:15:32.644Z,100585.35
2019-03-15T20:18:01.669Z,100591.31
2019-03-15T20:20:30.783Z,100602.83
2019-03-15T20:22:59.812Z,100602.83
2019-03-15T20:25:28.832Z,100589.49
2019-03-15T20:27:57.910Z,100593.88
2019-03-15T20:30:27.216Z,100581.52
2019-03-15T20:32:56.287Z,100581.52
2019-03-15T20:35:25.328Z,100595.98
2019-03-15T20:37:54.352Z,100600.36
2019-03-15T20:40:23.354Z,100600.36
2019-03-15T20:42:52.431Z,100607.26
2019-03-15T20:45:21.667Z,100607.26
2019-03-15T20:47:50.729Z,100619.15
2019-03-15T20:50:19.850Z,100612.27
2019-03-15T20:52:51.346Z,100612.27
2019-03-15T20:55:20.516Z,100613.87
2019-03-15T20:57:49.557Z,100611.06
2019-03-15T21:00:19.008Z,100611.06
2019-03-15T21:02:49.458Z,100614.16
2019-03-15T21:05:25.849Z,100613.40
2019-03-15T21:07:54.837Z,100613.40
2019-03-15T21:10:23.855Z,100632.55
2019-03-15T21:12:52.864Z,100636.98
2019-03-15T21:15:21.861Z,100640.73
2019-03-15T21:17:50.930Z,100632.58
2019-03-15T21:20:22.622Z,100632.58
2019-03-15T21:22:50.816Z,100652.38
2019-03-15T21:25:19.825Z,100652.38
2019-03-15T21:27:54.170Z,100647.61
2019-03-15T21:30:19.659Z,100641.65
2019-03-15T21:32:49.894Z,100641.65
2019-03-15T21:35:19.289Z,100650.05
2019-03-15T21:37:49.872Z,100657.80
2019-03-15T21:40:18.961Z,100657.98
2019-03-15T21:42:47.982Z,100665.91
2019-03-15T21:45:17.146Z,100665.91
2019-03-15T21:47:48.563Z,100657.53
2019-03-15T21:50:17.655Z,100657.53
2019-03-15T21:52:46.959Z,100668.07
2019-03-15T21:55:16.125Z,100676.84
2019-03-15T21:57:45.212Z,100676.84
2019-03-15T22:00:14.576Z,100680.47
2019-03-15T22:02:43.821Z,100676.66
2019-03-15T22:05:12.893Z,100680.34
2019-03-15T22:07:41.989Z,100680.34
2019-03-15T22:10:11.689Z,100686.23
2019-03-15T22:12:40.785Z,100689.55
2019-03-15T22:15:10.180Z,100683.09
2019-03-15T22:17:39.402Z,100681.92
2019-03-15T22:20:09.530Z,100684.69
2019-03-15T22:22:41.280Z,100699.48
2019-03-15T22:25:10.611Z,100703.02
2019-03-15T22:27:39.830Z,100698.59
2019-03-15T22:30:09.097Z,100701.52
2019-03-15T22:32:38.288Z,100706.14
2019-03-15T22:35:07.586Z,100702.67
2019-03-15T22:37:36.854Z,100702.67
2019-03-15T22:40:06.556Z,100709.25
2019-03-15T22:42:35.574Z,100722.35
2019-03-15T22:45:05.019Z,100722.35
2019-03-15T22:47:34.522Z,100723.66
2019-03-15T22:50:05.077Z,100712.34
2019-03-15T22:52:34.142Z,100712.34
2019-03-15T22:55:03.228Z,100715.91
2019-03-15T22:57:32.301Z,100722.09
2019-03-15T23:00:03.033Z,100721.61
2019-03-15T23:02:32.113Z,100710.08
2019-03-15T23:05:01.138Z,100712.34
2019-03-15T23:07:30.187Z,100712.34
2019-03-15T23:09:59.186Z,100714.97
2019-03-15T23:12:28.449Z,100708.52
2019-03-15T23:14:57.457Z,100708.52
2019-03-15T23:17:26.467Z,100728.51
2019-03-15T23:19:55.508Z,100720.50
2019-03-15T23:22:24.508Z,100719.72
2019-03-15T23:24:53.604Z,100729.61
2019-03-15T23:27:22.622Z,100720.92
2019-03-15T23:29:51.613Z,100720.92
2019-03-15T23:32:20.645Z,100713.08
2019-03-15T23:34:49.677Z,100713.08
2019-03-15T23:37:18.693Z,100708.91
2019-03-15T23:39:47.682Z,100725.23
2019-03-15T23:42:16.710Z,100741.59
2019-03-15T23:44:45.762Z,100742.75
2019-03-15T23:47:16.871Z,100749.65
2019-03-15T23:49:48.060Z,100751.20
2019-03-15T23:52:18.126Z,100746.75
2019-03-15T23:54:47.409Z,100747.10
2019-03-15T23:57:16.403Z,100747.10
2019-03-15T23:59:47.432Z,100750.58
